Terminal Aerodrome Forecast
Issued by NWS

Home | Current Version | Previous Version | Graphics & Text | Print | Product List | Glossary On
Versions: 1 2 3 4 5 6 7 8 9 10 11 12 13 14 15 16 17 18 19 20 21 22 23 24 25 26 27 28 29 30 31 32 33 34 35 36 37 38 39 40 41 42 43 44 45 46
528
FTUS43 KLOT 210706 AAA
TAFGYY
TAF AMD
KGYY 210706Z 2107/2206 05004KT P6SM FEW040 BKN250
     FM210730 VRB04KT P6SM VCTS SCT040CB BKN150
      TEMPO 2108/2110 29010G20KT 4SM TSRA BKN030CB
     FM211100 VRB04KT P6SM FEW040 BKN090
     FM211500 12006KT P6SM BKN100 PROB30 2122/2202 5SM TSRA BKN050CB
     FM220500 18007KT P6SM BKN100=

USA.gov is the U.S. government's official web portal to all federal, state and local government web resources and services.